CheckWX is a tool to help pilots better visualize weather data.  It is not intended as a substitute for an official pre-flight weather briefing.

12:38:06 UTC

GCTS METAR
Tenerife South Airport
Tenerife Island, Spain
Current

38 mins ago

GCTS 021200Z 07022KT CAVOK 27/18 Q1018 NOSIG
Observed
Jul-2 @ 12:00 UTC
Wind
  • 070° at 22 KTS
Visibility
10,000+ meters
Flight Rules
VFR
Cloud Levels
  • Clear skies
Temperature
27°C / 81°F
Dewpoint
18°C / 64°F
Humidity
58%
Altimeter
30.06" Hg
Pressure
1017.92 hPa
Previous

1 hour ago

GCTS 021130Z 07023KT CAVOK 27/17 Q1018 NOSIG
Observed
Jul-2 @ 11:30 UTC
Wind
  • 070° at 23 KTS
Visibility
10,000+ meters
Flight Rules
VFR
Cloud Levels
  • Clear skies
Temperature
27°C / 81°F
Dewpoint
17°C / 63°F
Humidity
54%
Altimeter
30.06" Hg
Pressure
1017.92 hPa
Previous

2 hours ago

GCTS 021100Z 06021KT CAVOK 26/17 Q1018 NOSIG
Observed
Jul-2 @ 11:00 UTC
Wind
  • 060° at 21 KTS
Visibility
10,000+ meters
Flight Rules
VFR
Cloud Levels
  • Clear skies
Temperature
26°C / 79°F
Dewpoint
17°C / 63°F
Humidity
58%
Altimeter
30.06" Hg
Pressure
1017.92 hPa